Time;durP1;ratioP1;P1;durP2;ratioP2;P2;SDS_P1;SDS_P2;PMS_P1;PMS_P2;Temp;Humidity;BMP_temperature;BMP_pressure;BME280_temperature;BME280_humidity;BME280_pressure;Samples;Min_cycle;Max_cycle;Signal;HPM_P1;HPM_P2
2022/05/28 00:00:18;;;;;;;3.45;1.00;;;10.60;99.90;;;;;;4864323;29;20048;-79
2022/05/28 00:02:45;;;;;;;3.80;0.98;;;10.70;99.90;;;;;;4847388;29;20073;-78
2022/05/28 00:05:11;;;;;;;6.93;1.25;;;10.70;99.90;;;;;;4843829;29;20277;-78
2022/05/28 00:07:37;;;;;;;2.47;0.80;;;10.70;99.90;;;;;;4861899;29;20033;-79
2022/05/28 00:10:03;;;;;;;3.80;0.82;;;10.70;99.90;;;;;;4844417;29;20076;-78
2022/05/28 00:12:29;;;;;;;5.75;0.95;;;10.70;99.90;;;;;;4841927;29;20045;-78
2022/05/28 00:14:56;;;;;;;6.60;1.42;;;10.80;99.90;;;;;;4860828;29;20525;-78
2022/05/28 00:17:22;;;;;;;4.97;0.85;;;10.80;99.90;;;;;;4845385;29;20076;-78
2022/05/28 00:19:47;;;;;;;4.65;0.90;;;10.90;99.90;;;;;;4862021;29;20531;-78
2022/05/28 00:22:14;;;;;;;5.38;1.02;;;10.90;99.90;;;;;;4848631;29;20057;-79
2022/05/28 00:24:40;;;;;;;4.75;1.10;;;10.90;99.90;;;;;;4866147;29;20392;-78
2022/05/28 00:27:05;;;;;;;3.92;0.98;;;10.90;99.90;;;;;;4850602;29;20078;-78
2022/05/28 00:29:31;;;;;;;4.97;1.02;;;10.90;99.90;;;;;;4859162;29;20040;-78
2022/05/28 00:31:56;;;;;;;3.97;0.60;;;10.90;99.90;;;;;;4842418;29;20045;-78
2022/05/28 00:34:22;;;;;;;7.13;1.23;;;10.90;99.90;;;;;;4869343;29;20045;-78
2022/05/28 00:36:47;;;;;;;2.97;0.68;;;11.00;99.90;;;;;;4864713;29;20051;-78
2022/05/28 00:39:13;;;;;;;5.43;1.25;;;11.00;99.90;;;;;;4848393;29;20461;-78
2022/05/28 00:41:39;;;;;;;2.95;0.70;;;11.00;99.90;;;;;;4851592;29;20045;-80
2022/05/28 00:44:05;;;;;;;4.45;0.90;;;11.00;99.90;;;;;;4846078;29;20068;-80
2022/05/28 00:46:31;;;;;;;3.63;0.55;;;10.90;99.90;;;;;;4846435;29;20077;-79
2022/05/28 00:49:00;;;;;;;1.65;0.50;;;10.70;99.90;;;;;;4845407;29;20044;-80
2022/05/28 00:51:29;;;;;;;3.33;0.63;;;10.50;99.90;;;;;;4861825;29;20041;-80
2022/05/28 00:53:58;;;;;;;2.08;1.30;;;10.30;99.90;;;;;;4845101;29;20049;-80
2022/05/28 00:56:24;;;;;;;1.02;0.47;;;10.10;99.90;;;;;;4860969;29;20048;-80
2022/05/28 00:58:50;;;;;;;2.08;0.60;;;9.90;99.90;;;;;;4860854;29;20045;-80
2022/05/28 01:01:21;;;;;;;2.35;0.50;;;9.80;99.90;;;;;;4862076;29;20041;-80
2022/05/28 01:04:25;;;;;;;4.30;0.75;;;9.60;99.90;;;;;;4846534;29;20052;-80
2022/05/28 01:07:18;;;;;;;2.58;0.90;;;9.40;99.90;;;;;;4844093;29;20496;-80
2022/05/28 01:10:13;;;;;;;3.10;0.73;;;9.30;99.90;;;;;;4844822;29;20592;-80
2022/05/28 01:12:58;;;;;;;2.20;0.68;;;9.20;99.90;;;;;;4846869;29;20041;-79
2022/05/28 01:15:32;;;;;;;2.15;0.70;;;9.10;99.90;;;;;;4845997;29;20041;-80
2022/05/28 01:18:12;;;;;;;4.60;0.80;;;9.10;99.90;;;;;;4845293;29;20631;-80
2022/05/28 01:20:43;;;;;;;3.97;0.90;;;9.00;99.90;;;;;;4846318;29;20466;-80
2022/05/28 01:23:34;;;;;;;3.38;0.98;;;8.90;99.90;;;;;;4850116;29;20051;-80
2022/05/28 01:26:26;;;;;;;1.38;0.85;;;8.70;99.90;;;;;;4839193;29;20404;-80
2022/05/28 01:28:57;;;;;;;2.63;0.80;;;8.70;99.90;;;;;;4846790;29;20385;-80
2022/05/28 01:31:26;;;;;;;3.60;0.90;;;8.60;99.90;;;;;;4845438;29;20040;-79
2022/05/28 01:33:52;;;;;;;2.38;0.82;;;8.60;99.90;;;;;;4846740;29;20491;-80
2022/05/28 01:36:19;;;;;;;4.32;1.00;;;8.50;99.90;;;;;;4845910;29;20284;-79
2022/05/28 01:38:46;;;;;;;4.07;1.00;;;8.50;99.90;;;;;;4862735;29;20526;-79
2022/05/28 01:41:13;;;;;;;4.70;1.00;;;8.50;99.90;;;;;;4863910;29;20500;-79
2022/05/28 01:43:43;;;;;;;5.10;0.90;;;8.40;99.90;;;;;;4848698;29;20056;-80
2022/05/28 01:46:11;;;;;;;4.63;1.38;;;8.40;99.90;;;;;;4849879;29;20029;-79
2022/05/28 01:48:39;;;;;;;6.28;1.00;;;8.40;99.90;;;;;;4874683;29;20404;-79
2022/05/28 01:51:07;;;;;;;6.45;1.92;;;8.40;99.90;;;;;;4864425;29;20060;-79
2022/05/28 01:56:21;;;;;;;4.80;1.25;;;8.40;99.90;;;;;;4864630;29;20044;-79
2022/05/28 01:58:47;;;;;;;9.70;1.50;;;8.40;99.90;;;;;;4842574;29;20033;-79
2022/05/28 02:01:12;;;;;;;3.30;1.13;;;8.40;99.90;;;;;;4849383;29;20506;-79
2022/05/28 02:03:42;;;;;;;3.30;1.05;;;8.30;99.90;;;;;;4849686;29;20041;-79
2022/05/28 02:06:07;;;;;;;5.40;1.00;;;8.30;99.90;;;;;;4850389;29;20064;-79
2022/05/28 02:08:36;;;;;;;3.17;0.93;;;8.30;99.90;;;;;;4849881;29;20048;-79
2022/05/28 02:11:30;;;;;;;4.03;1.00;;;8.30;99.90;;;;;;4851142;29;20412;-79
2022/05/28 02:14:11;;;;;;;4.13;1.00;;;8.30;99.90;;;;;;4850703;29;20045;-79
2022/05/28 02:16:57;;;;;;;4.43;0.90;;;8.30;99.90;;;;;;4850921;29;20053;-80
2022/05/28 02:19:36;;;;;;;4.95;1.00;;;8.30;99.90;;;;;;4864243;29;20521;-79
2022/05/28 02:22:09;;;;;;;4.10;1.20;;;8.30;99.90;;;;;;4849935;29;20044;-79
2022/05/28 02:24:44;;;;;;;4.88;1.08;;;8.20;99.90;;;;;;4850989;29;20124;-80
2022/05/28 02:27:14;;;;;;;4.00;1.63;;;8.20;99.90;;;;;;4866322;29;20041;-79
2022/05/28 02:29:39;;;;;;;3.80;1.05;;;8.20;99.90;;;;;;4849675;29;20041;-79
2022/05/28 02:32:18;;;;;;;3.45;1.05;;;8.10;99.90;;;;;;4845537;29;20042;-79
2022/05/28 02:34:45;;;;;;;6.40;1.10;;;8.10;99.90;;;;;;4850788;29;20076;-79
2022/05/28 02:37:13;;;;;;;3.35;1.17;;;8.10;99.90;;;;;;4850680;29;20128;-79
2022/05/28 02:39:38;;;;;;;6.10;1.40;;;8.10;99.90;;;;;;4849237;29;20045;-80
2022/05/28 02:42:04;;;;;;;3.42;1.17;;;8.10;99.90;;;;;;4850035;29;20041;-79
2022/05/28 02:44:30;;;;;;;6.30;1.60;;;8.10;99.90;;;;;;4866333;29;20041;-79
2022/05/28 02:46:55;;;;;;;3.22;1.15;;;8.10;99.90;;;;;;4851503;29;20076;-79
2022/05/28 02:49:22;;;;;;;4.78;1.23;;;8.00;99.90;;;;;;4864406;29;20132;-79
2022/05/28 02:51:48;;;;;;;4.72;1.20;;;8.00;99.90;;;;;;4865117;29;20037;-79
2022/05/28 02:54:13;;;;;;;4.82;1.33;;;7.90;99.90;;;;;;4866599;29;20416;-79
2022/05/28 02:56:39;;;;;;;5.05;1.60;;;7.90;99.90;;;;;;4865075;29;20135;-79
2022/05/28 02:59:05;;;;;;;4.97;1.20;;;7.90;99.90;;;;;;4844670;29;20069;-80
2022/05/28 03:01:33;;;;;;;4.60;1.00;;;7.80;99.90;;;;;;4865169;29;20041;-79
2022/05/28 03:03:59;;;;;;;5.13;1.40;;;7.80;99.90;;;;;;4846286;29;20511;-79
2022/05/28 03:06:25;;;;;;;7.13;1.35;;;7.70;99.90;;;;;;4846907;29;20049;-79
2022/05/28 03:08:51;;;;;;;4.80;1.33;;;7.60;99.90;;;;;;4863380;29;20045;-79
2022/05/28 03:11:17;;;;;;;3.58;1.30;;;7.70;99.90;;;;;;4846155;29;20048;-79
2022/05/28 03:13:43;;;;;;;5.68;1.33;;;7.60;99.90;;;;;;4847491;29;20045;-79
2022/05/28 03:16:09;;;;;;;4.43;1.10;;;7.60;99.90;;;;;;4863328;29;20083;-79
2022/05/28 03:18:35;;;;;;;6.18;1.20;;;7.50;99.90;;;;;;4862154;29;20044;-79
2022/05/28 03:21:00;;;;;;;4.47;1.17;;;7.50;99.90;;;;;;4846584;29;20097;-79
2022/05/28 03:23:26;;;;;;;3.08;1.50;;;7.40;99.90;;;;;;4862385;29;20453;-81
2022/05/28 03:25:52;;;;;;;4.78;1.40;;;7.40;99.90;;;;;;4862271;29;20049;-81
2022/05/28 03:28:17;;;;;;;5.38;1.60;;;7.30;99.90;;;;;;4862848;29;20045;-81
2022/05/28 03:30:43;;;;;;;5.03;1.15;;;7.30;99.90;;;;;;4847719;29;20048;-81
2022/05/28 03:33:09;;;;;;;5.13;1.45;;;7.30;99.90;;;;;;4840990;29;20058;-81
2022/05/28 03:35:35;;;;;;;3.97;0.90;;;7.30;99.90;;;;;;4848006;29;20041;-81
2022/05/28 03:38:01;;;;;;;4.07;1.20;;;7.30;99.90;;;;;;4863214;29;20040;-81
2022/05/28 03:40:27;;;;;;;5.93;1.48;;;7.30;99.90;;;;;;4847322;29;20041;-81
2022/05/28 03:42:52;;;;;;;3.42;1.27;;;7.30;99.90;;;;;;4863079;29;20052;-81
2022/05/28 03:45:18;;;;;;;4.78;1.42;;;7.30;99.90;;;;;;4846962;29;20048;-81
2022/05/28 03:47:44;;;;;;;3.08;1.73;;;7.30;99.90;;;;;;4846298;29;20124;-81
2022/05/28 03:50:09;;;;;;;5.43;1.50;;;7.40;99.90;;;;;;4839848;29;20649;-81
2022/05/28 03:52:35;;;;;;;6.07;1.67;;;7.50;99.90;;;;;;4847315;29;20116;-81
2022/05/28 03:55:00;;;;;;;7.80;1.45;;;7.50;99.90;;;;;;4847026;29;20045;-81
2022/05/28 03:57:29;;;;;;;10.38;1.70;;;7.60;99.90;;;;;;4863067;29;20415;-81
2022/05/28 03:59:57;;;;;;;3.88;1.70;;;7.70;99.90;;;;;;4845588;29;20139;-81
2022/05/28 04:02:22;;;;;;;6.15;1.63;;;7.80;99.90;;;;;;4845171;29;20041;-81
2022/05/28 04:04:48;;;;;;;4.30;1.58;;;7.90;99.90;;;;;;4862547;29;20469;-81
2022/05/28 04:07:14;;;;;;;7.57;1.80;;;7.90;99.90;;;;;;4847980;29;20052;-81
2022/05/28 04:09:40;;;;;;;5.25;1.50;;;7.90;99.90;;;;;;4848056;29;20167;-81
2022/05/28 04:12:06;;;;;;;7.78;1.80;;;7.90;99.90;;;;;;4863960;29;20044;-81
2022/05/28 04:14:31;;;;;;;3.10;1.38;;;7.90;99.90;;;;;;4862056;29;20080;-81
2022/05/28 04:16:57;;;;;;;6.15;1.60;;;7.90;99.90;;;;;;4863344;29;20045;-82
2022/05/28 04:19:23;;;;;;;3.90;1.55;;;8.00;99.90;;;;;;4863639;29;20472;-81
2022/05/28 04:21:48;;;;;;;5.55;1.67;;;8.00;99.90;;;;;;4862716;29;20508;-81
2022/05/28 04:24:14;;;;;;;4.97;1.58;;;8.10;99.90;;;;;;4847310;29;20124;-81
2022/05/28 04:26:40;;;;;;;7.32;1.50;;;8.10;99.90;;;;;;4848150;29;20072;-81
2022/05/28 04:29:06;;;;;;;5.78;1.40;;;8.30;99.90;;;;;;4862246;29;20097;-81
2022/05/28 04:31:31;;;;;;;7.35;1.52;;;8.40;99.90;;;;;;4847004;29;20071;-81
2022/05/28 04:33:57;;;;;;;4.30;1.42;;;8.60;99.90;;;;;;4844948;29;20473;-81
2022/05/28 04:36:23;;;;;;;4.20;1.88;;;8.90;99.90;;;;;;4863249;29;20036;-81
2022/05/28 04:38:48;;;;;;;8.18;2.08;;;9.30;99.90;;;;;;4860926;29;20096;-81
2022/05/28 04:41:14;;;;;;;10.65;1.70;;;9.60;99.90;;;;;;4856902;29;20035;-81
2022/05/28 04:43:40;;;;;;;4.35;1.00;;;9.80;99.90;;;;;;4863075;29;20060;-81
2022/05/28 04:46:05;;;;;;;6.95;1.23;;;10.10;99.90;;;;;;4848336;29;20041;-81
2022/05/28 04:48:31;;;;;;;6.32;1.17;;;10.20;99.90;;;;;;4848766;29;20037;-81
2022/05/28 04:50:57;;;;;;;8.82;1.52;;;10.40;99.90;;;;;;4848224;29;20093;-81
2022/05/28 04:53:22;;;;;;;3.30;0.80;;;10.60;99.90;;;;;;4846924;29;20052;-81
2022/05/28 04:55:48;;;;;;;7.15;1.30;;;10.80;99.90;;;;;;4847938;29;20048;-81
2022/05/28 04:58:14;;;;;;;2.90;0.88;;;11.10;99.90;;;;;;4848353;29;20037;-81
2022/05/28 05:00:42;;;;;;;5.13;1.35;;;11.30;99.90;;;;;;4849275;29;20515;-81
2022/05/28 05:03:08;;;;;;;4.45;1.10;;;11.40;99.90;;;;;;4861830;29;20040;-80
2022/05/28 05:05:34;;;;;;;4.20;1.00;;;11.60;99.90;;;;;;4864291;29;20469;-80
2022/05/28 05:08:00;;;;;;;6.55;1.20;;;12.00;99.90;;;;;;4847879;29;20037;-80
2022/05/28 05:10:26;;;;;;;4.60;1.08;;;12.40;99.90;;;;;;4864948;29;20052;-81
2022/05/28 05:12:51;;;;;;;6.90;0.85;;;12.80;99.90;;;;;;4848647;29;20045;-80
2022/05/28 05:15:17;;;;;;;5.75;1.00;;;13.00;99.90;;;;;;4854224;29;20040;-81
2022/05/28 05:17:42;;;;;;;3.67;0.82;;;13.20;99.90;;;;;;4867413;29;20040;-81
2022/05/28 05:20:10;;;;;;;4.65;0.90;;;13.30;99.90;;;;;;4852733;29;20044;-78
2022/05/28 05:22:36;;;;;;;4.93;1.17;;;13.40;99.90;;;;;;4839373;29;20048;-78
2022/05/28 05:25:02;;;;;;;3.97;0.90;;;13.30;99.90;;;;;;4864443;29;20049;-79
2022/05/28 05:27:28;;;;;;;5.60;1.17;;;13.40;99.90;;;;;;4849487;29;20041;-78
2022/05/28 05:29:58;;;;;;;4.35;1.17;;;13.50;99.90;;;;;;4865368;29;20045;-78
2022/05/28 05:32:24;;;;;;;8.15;1.30;;;13.60;99.90;;;;;;4847761;29;20037;-78
2022/05/28 05:34:49;;;;;;;8.50;1.20;;;13.90;99.90;;;;;;4842795;29;20092;-79
2022/05/28 05:37:15;;;;;;;3.50;1.30;;;14.10;99.90;;;;;;4865432;29;20472;-79
2022/05/28 05:39:41;;;;;;;7.00;1.10;;;14.30;99.90;;;;;;4849793;29;20048;-78
2022/05/28 05:42:07;;;;;;;6.00;1.10;;;14.40;99.90;;;;;;4847110;29;20045;-79
2022/05/28 05:44:33;;;;;;;5.00;1.05;;;14.40;99.90;;;;;;4848116;29;20377;-79
2022/05/28 05:46:58;;;;;;;5.93;1.25;;;14.50;99.90;;;;;;4849347;29;20037;-79
2022/05/28 05:49:24;;;;;;;5.88;1.40;;;14.40;99.90;;;;;;4863510;29;20043;-79
2022/05/28 05:51:55;;;;;;;7.10;1.67;;;14.40;99.90;;;;;;4902259;23;20516;-80
2022/05/28 05:54:27;;;;;;;5.90;1.45;;;14.00;99.90;;;;;;4886298;29;20080;-80
2022/05/28 05:57:03;;;;;;;4.30;1.13;;;13.80;99.90;;;;;;4857041;29;20419;-80
2022/05/28 06:00:00;;;;;;;;;;;;;;;;;;;;;
2022/05/28 06:02:40;;;;;;;7.68;1.65;;;13.00;99.90;;;;;;4864627;29;20040;-79
2022/05/28 06:05:12;;;;;;;4.55;1.30;;;12.70;99.90;;;;;;4870567;29;20047;-80
2022/05/28 06:07:47;;;;;;;7.00;1.15;;;12.40;99.90;;;;;;4841685;29;20114;-80
2022/05/28 06:10:38;;;;;;;6.22;1.02;;;12.20;99.90;;;;;;4861712;29;20052;-80
2022/05/28 06:13:36;;;;;;;;;;;;;;;;;;;;;
2022/05/28 06:16:29;;;;;;;5.30;1.02;;;11.90;99.90;;;;;;4852620;29;20063;-80
2022/05/28 06:19:11;;;;;;;5.40;1.50;;;11.70;99.90;;;;;;4855365;29;20049;-80
2022/05/28 06:21:51;;;;;;;4.35;1.20;;;11.50;99.90;;;;;;4842835;29;20052;-80
2022/05/28 06:24:23;;;;;;;4.40;1.42;;;11.50;99.90;;;;;;4856274;29;20053;-80
2022/05/28 06:27:19;;;;;;;7.43;1.27;;;11.50;99.90;;;;;;4844284;29;20092;-80
2022/05/28 06:30:11;;;;;;;;;;;;;;;;;;;;;
2022/05/28 06:32:50;;;;;;;8.02;1.50;;;11.40;99.90;;;;;;4841431;29;20045;-80
2022/05/28 06:35:34;;;;;;;6.32;1.35;;;11.30;99.90;;;;;;4868437;29;20038;-80
2022/05/28 06:38:20;;;;;;;5.40;1.58;;;11.20;99.90;;;;;;4841537;29;20069;-80
2022/05/28 06:40:52;;;;;;;5.43;1.67;;;11.10;99.90;;;;;;4849053;29;20052;-80
2022/05/28 06:44:29;;;;;;;5.38;1.33;;;11.20;99.90;;;;;;4866658;29;20477;-80
2022/05/28 06:47:23;;;;;;;5.78;1.35;;;11.20;99.90;;;;;;4839327;29;20129;-80
2022/05/28 06:53:23;;;;;;;;;;;;;;;;;;;;;
2022/05/28 06:56:11;;;;;;;6.20;1.40;;;11.80;99.90;;;;;;4891212;29;20045;-79
2022/05/28 07:02:33;;;;;;;5.38;1.23;;;12.20;99.90;;;;;;4865687;29;20540;-79
2022/05/28 07:05:19;;;;;;;7.32;1.58;;;12.40;99.90;;;;;;4865539;29;20052;-80
2022/05/28 07:08:16;;;;;;;9.45;1.70;;;12.50;99.90;;;;;;4842593;29;20132;-80
2022/05/28 07:10:56;;;;;;;9.40;2.00;;;12.80;99.90;;;;;;4860487;29;20045;-80
2022/05/28 07:13:39;;;;;;;10.13;2.03;;;13.00;99.90;;;;;;4846605;29;20044;-79
2022/05/28 07:16:37;;;;;;;8.02;1.50;;;13.20;99.90;;;;;;4853043;29;20045;-80
2022/05/28 07:19:29;;;;;;;5.32;1.80;;;13.20;99.90;;;;;;4864920;29;20460;-80
2022/05/28 07:22:55;;;;;;;3.88;1.35;;;13.20;99.90;;;;;;4851127;29;20048;-80
2022/05/28 07:25:59;;;;;;;7.85;1.58;;;13.30;99.90;;;;;;4837384;29;20057;-80
2022/05/28 07:29:19;;;;;;;6.75;1.17;;;13.20;99.90;;;;;;4845691;29;20045;-80
2022/05/28 07:43:12;;;;;;;7.50;1.80;;;13.80;99.90;;;;;;4983837;23;20061;-80
2022/05/28 07:46:12;;;;;;;7.88;1.80;;;13.80;99.90;;;;;;4849464;29;20041;-80
2022/05/28 07:49:31;;;;;;;;;;;;;;;;;;;;;
2022/05/28 07:52:57;;;;;;;5.40;1.27;;;13.40;99.90;;;;;;4820317;29;20063;-79
2022/05/28 07:59:19;;;;;;;7.53;1.60;;;13.90;99.90;;;;;;4815399;29;20042;-80
2022/05/28 08:02:15;;;;;;;8.18;1.70;;;14.00;99.90;;;;;;4773394;29;20047;-80
2022/05/28 08:05:18;;;;;;;7.20;1.50;;;14.10;99.90;;;;;;4781483;29;20137;-80
2022/05/28 08:12:14;;;;;;;8.23;2.13;;;14.40;99.90;;;;;;4778347;29;20081;-80
2022/05/28 08:15:29;;;;;;;7.40;1.98;;;14.90;99.90;;;;;;4832748;29;20046;-80
2022/05/28 08:19:13;;;;;;;5.40;1.30;;;15.50;99.90;;;;;;4843283;29;20531;-80
2022/05/28 08:25:53;;;;;;;5.90;1.27;;;15.70;99.90;;;;;;4850067;29;20419;-80
2022/05/28 08:29:22;;;;;;;5.70;1.85;;;15.10;99.90;;;;;;4843319;29;20117;-80
2022/05/28 08:32:49;;;;;;;6.68;1.30;;;14.70;99.90;;;;;;4871735;23;20045;-80
2022/05/28 08:36:00;;;;;;;7.55;1.40;;;14.40;99.90;;;;;;4815755;29;20060;-80
2022/05/28 08:39:05;;;;;;;6.40;1.52;;;14.40;99.90;;;;;;4881751;29;20107;-80
2022/05/28 08:48:51;;;;;;;5.35;1.40;;;15.90;99.90;;;;;;4861828;29;20550;-80
2022/05/28 08:51:54;;;;;;;6.32;1.60;;;15.70;99.90;;;;;;4848879;29;20041;-81
2022/05/28 08:55:07;;;;;;;5.47;1.60;;;15.40;99.90;;;;;;4869931;29;20033;-80
2022/05/28 08:58:07;;;;;;;7.35;1.58;;;15.20;99.90;;;;;;4867345;29;20113;-79
2022/05/28 09:01:16;;;;;;;6.13;1.35;;;16.20;99.90;;;;;;4851306;29;20135;-80
2022/05/28 09:04:14;;;;;;;7.00;1.75;;;17.60;99.90;;;;;;4849620;29;20037;-80
2022/05/28 09:07:10;;;;;;;5.03;1.48;;;17.80;99.90;;;;;;4869927;29;20496;-81
2022/05/28 09:10:02;;;;;;;5.53;1.25;;;17.30;99.90;;;;;;4844711;29;20029;-80
2022/05/28 09:12:46;;;;;;;5.40;1.63;;;16.80;99.90;;;;;;4842247;29;20045;-81
2022/05/28 09:15:31;;;;;;;5.55;1.45;;;16.40;99.90;;;;;;4824544;29;20465;-81
2022/05/28 09:18:04;;;;;;;8.30;2.00;;;16.20;99.90;;;;;;4873192;29;20052;-80
2022/05/28 09:28:06;;;;;;;8.55;1.40;;;17.40;99.90;;;;;;4866650;29;20343;-81
2022/05/28 09:31:45;;;;;;;4.20;1.02;;;18.60;99.90;;;;;;4827425;23;20061;-80
2022/05/28 09:35:11;;;;;;;5.28;1.40;;;18.40;99.90;;;;;;4878476;29;20071;-80
2022/05/28 09:38:39;;;;;;;5.95;1.30;;;17.90;99.90;;;;;;4870957;29;20048;-80
2022/05/28 09:41:45;;;;;;;3.58;1.20;;;17.40;99.90;;;;;;4898954;29;20044;-80
2022/05/28 09:45:18;;;;;;;6.00;1.52;;;17.30;99.90;;;;;;4875589;29;20049;-79
2022/05/28 09:56:03;;;;;;;4.40;1.20;;;19.20;99.90;;;;;;4837524;29;20452;-79
2022/05/28 09:59:32;;;;;;;3.70;1.10;;;17.90;99.90;;;;;;4811551;29;20054;-81
2022/05/28 10:06:37;;;;;;;5.55;1.52;;;17.20;99.90;;;;;;4832540;29;20054;-80
2022/05/28 10:17:02;;;;;;;4.55;1.27;;;19.10;99.90;;;;;;4843491;29;20050;-81
2022/05/28 10:19:47;;;;;;;5.90;1.42;;;20.60;99.90;;;;;;4844223;29;20049;-79
2022/05/28 10:22:34;;;;;;;8.15;1.50;;;21.40;99.90;;;;;;4861363;29;20041;-80
2022/05/28 10:25:34;;;;;;;4.25;1.20;;;21.80;99.90;;;;;;4858002;29;20048;-80
2022/05/28 10:28:06;;;;;;;5.85;1.35;;;22.20;93.10;;;;;;4861892;29;20055;-79
2022/05/28 10:30:44;;;;;;;5.67;1.40;;;21.60;99.90;;;;;;4862156;29;20044;-79
2022/05/28 10:33:21;;;;;;;5.70;1.50;;;20.80;99.90;;;;;;4865444;29;20028;-78
2022/05/28 10:35:48;;;;;;;3.10;1.13;;;19.90;99.90;;;;;;4864886;29;20067;-79
2022/05/28 10:38:25;;;;;;;6.03;1.42;;;19.10;99.90;;;;;;4860556;29;20139;-78
2022/05/28 10:40:54;;;;;;;4.85;1.38;;;18.50;99.90;;;;;;4853381;29;20132;-78
2022/05/28 10:43:37;;;;;;;4.13;1.30;;;18.70;99.90;;;;;;4857336;29;20049;-79
2022/05/28 10:46:27;;;;;;;3.53;1.27;;;19.40;99.90;;;;;;4864920;29;20044;-79
2022/05/28 10:49:26;;;;;;;5.68;1.27;;;19.80;99.90;;;;;;4863746;29;20036;-78
2022/05/28 10:52:06;;;;;;;6.18;1.30;;;19.60;99.90;;;;;;4876399;29;20055;-78
2022/05/28 10:54:45;;;;;;;5.97;1.30;;;18.90;99.40;;;;;;4877737;29;20047;-78
2022/05/28 10:57:40;;;;;;;3.00;1.00;;;18.50;98.80;;;;;;4876613;29;20044;-78
2022/05/28 11:00:25;;;;;;;6.43;1.60;;;18.40;99.50;;;;;;4864667;29;20096;-78
2022/05/28 11:03:12;;;;;;;6.03;1.25;;;18.60;99.90;;;;;;4864908;29;20044;-79
2022/05/28 11:06:02;;;;;;;6.22;1.50;;;18.60;99.90;;;;;;4863442;29;20353;-78
2022/05/28 11:09:03;;;;;;;9.68;1.83;;;18.40;99.90;;;;;;4853083;29;20055;-78
2022/05/28 11:11:58;;;;;;;7.03;1.40;;;18.10;99.90;;;;;;4843383;29;20496;-78
2022/05/28 11:14:57;;;;;;;4.78;1.52;;;18.50;99.90;;;;;;4861423;29;20056;-78
2022/05/28 11:18:01;;;;;;;8.15;1.02;;;18.90;99.90;;;;;;4874344;29;20491;-78
2022/05/28 11:20:50;;;;;;;5.30;1.23;;;18.80;96.60;;;;;;4854418;29;20045;-79
2022/05/28 11:23:42;;;;;;;5.30;1.35;;;18.40;99.90;;;;;;4859604;29;20064;-78
2022/05/28 11:26:23;;;;;;;5.68;1.50;;;18.00;99.90;;;;;;4876720;29;20052;-78
2022/05/28 11:29:01;;;;;;;5.88;1.20;;;17.70;99.90;;;;;;4864361;29;20484;-80
2022/05/28 11:31:50;;;;;;;5.40;1.20;;;17.40;99.90;;;;;;4858275;29;20499;-81
2022/05/28 11:35:43;;;;;;;5.35;1.27;;;17.10;99.70;;;;;;4863486;29;20053;-80
2022/05/28 11:38:34;;;;;;;5.50;1.20;;;16.50;99.90;;;;;;4834393;29;20053;-81
2022/05/28 11:41:18;;;;;;;5.80;1.30;;;16.30;99.90;;;;;;4878362;29;20593;-79
2022/05/28 11:44:19;;;;;;;;;;;16.20;99.90;;;;;;4862534;29;20444;-78
2022/05/28 11:47:05;;;;;;;6.10;1.30;;;16.30;99.90;;;;;;4773133;29;19921;-78
2022/05/28 11:53:06;;;;;;;5.07;1.42;;;18.70;95.30;;;;;;4878685;29;20041;-79
2022/05/28 11:55:37;;;;;;;4.82;1.15;;;19.30;97.70;;;;;;4855482;29;20651;-79
2022/05/28 11:58:25;;;;;;;7.47;1.40;;;19.30;98.20;;;;;;4863917;29;20095;-78
2022/05/28 12:00:56;;;;;;;5.20;1.55;;;19.30;97.00;;;;;;4882234;29;20058;-78
2022/05/28 12:03:27;;;;;;;5.72;1.20;;;19.10;92.30;;;;;;4868314;29;20076;-78
2022/05/28 12:06:22;;;;;;;4.50;1.27;;;18.80;90.20;;;;;;4859101;29;20137;-78
2022/05/28 12:09:07;;;;;;;5.85;1.33;;;18.60;91.70;;;;;;4879825;29;20442;-78
2022/05/28 12:11:46;;;;;;;5.53;1.45;;;18.50;93.50;;;;;;4852241;29;20053;-78
2022/05/28 12:14:47;;;;;;;4.60;1.15;;;18.50;90.60;;;;;;4869013;29;20177;-78
2022/05/28 12:17:19;;;;;;;4.53;1.30;;;18.30;88.90;;;;;;4854460;29;20508;-78
2022/05/28 12:19:48;;;;;;;7.90;1.10;;;18.10;91.70;;;;;;4857425;29;20460;-78
2022/05/28 12:22:31;;;;;;;5.55;1.15;;;18.00;93.50;;;;;;4859712;29;20535;-78
2022/05/28 12:25:21;;;;;;;4.70;1.35;;;18.50;96.30;;;;;;4871532;29;20076;-78
2022/05/28 12:28:07;;;;;;;4.78;1.40;;;19.60;91.50;;;;;;4881103;29;20044;-78
2022/05/28 12:30:37;;;;;;;4.47;1.30;;;20.60;94.70;;;;;;4863952;29;20088;-79
2022/05/28 12:33:06;;;;;;;3.78;1.23;;;21.10;83.80;;;;;;4859890;29;20033;-78
2022/05/28 12:36:05;;;;;;;4.63;1.08;;;21.00;82.80;;;;;;4878948;29;20080;-79
2022/05/28 12:38:54;;;;;;;6.13;1.40;;;20.60;75.20;;;;;;4856176;29;20507;-78
2022/05/28 12:41:35;;;;;;;3.38;1.42;;;19.90;80.90;;;;;;4878832;29;20499;-78
2022/05/28 12:44:10;;;;;;;4.53;1.38;;;19.40;82.40;;;;;;4877308;29;20124;-78
2022/05/28 12:46:41;;;;;;;5.18;1.40;;;19.70;86.30;;;;;;4863028;29;20495;-78
2022/05/28 12:49:51;;;;;;;4.72;1.20;;;19.60;81.50;;;;;;4862532;29;20504;-78
2022/05/28 12:52:58;;;;;;;8.43;1.65;;;19.00;76.20;;;;;;4822754;29;20053;-78
2022/05/28 12:55:42;;;;;;;5.05;1.42;;;18.20;81.40;;;;;;4831207;29;20412;-78
2022/05/28 12:58:25;;;;;;;5.57;1.40;;;17.70;84.90;;;;;;4852362;29;20503;-78
2022/05/28 13:01:00;;;;;;;4.35;1.48;;;17.90;86.10;;;;;;4860217;29;20044;-79
2022/05/28 13:03:32;;;;;;;7.30;1.58;;;17.90;86.70;;;;;;4863415;29;20297;-79
2022/05/28 13:06:16;;;;;;;4.32;1.08;;;17.40;83.70;;;;;;4878912;29;20091;-78
2022/05/28 13:09:07;;;;;;;6.82;1.50;;;16.90;84.80;;;;;;4860910;29;20041;-78
2022/05/28 13:11:52;;;;;;;5.05;1.40;;;16.40;89.20;;;;;;4863561;29;20067;-78
2022/05/28 13:14:51;;;;;;;6.43;1.60;;;16.10;92.40;;;;;;4860387;29;20135;-78
2022/05/28 13:17:48;;;;;;;3.53;1.30;;;15.90;95.50;;;;;;4862106;29;20573;-79
2022/05/28 13:20:22;;;;;;;3.83;1.40;;;15.90;94.50;;;;;;4890997;29;20127;-78
2022/05/28 13:23:16;;;;;;;5.75;1.23;;;16.20;98.00;;;;;;4862439;29;20093;-78
2022/05/28 13:25:56;;;;;;;4.10;1.30;;;16.90;96.20;;;;;;4852170;29;20135;-78
2022/05/28 13:28:46;;;;;;;4.95;1.50;;;17.30;95.10;;;;;;4848894;29;20083;-78
2022/05/28 13:35:00;;;;;;;4.82;1.25;;;17.00;91.60;;;;;;4819616;29;20128;-79
2022/05/28 13:37:36;;;;;;;3.25;0.95;;;16.80;86.50;;;;;;4827014;29;20046;-79
2022/05/28 13:44:47;;;;;;;;;;;;;;;;;;;;;
2022/05/28 13:47:47;;;;;;;3.72;1.00;;;17.00;90.60;;;;;;4885342;29;20100;-79
2022/05/28 13:54:25;;;;;;;6.13;1.13;;;18.20;93.70;;;;;;4873333;29;20048;-80
2022/05/28 14:25:03;;;;;;;3.85;1.02;;;19.20;75.60;;;;;;4784395;30;20450;-80
2022/05/28 14:36:35;;;;;;;3.65;0.82;;;17.10;74.50;;;;;;4727821;30;20576;-80
2022/05/28 14:39:49;;;;;;;3.72;0.90;;;16.70;77.60;;;;;;4677572;30;20139;-79
2022/05/28 14:42:45;;;;;;;3.78;1.00;;;16.60;80.40;;;;;;4767815;30;20051;-79
2022/05/28 14:45:24;;;;;;;5.43;1.20;;;16.70;82.70;;;;;;4767652;29;20098;-78
2022/05/28 14:47:51;;;;;;;4.60;1.00;;;16.50;82.60;;;;;;4837939;29;20092;-78
2022/05/28 14:50:39;;;;;;;4.03;1.25;;;16.30;84.70;;;;;;4863375;29;20049;-79
2022/05/28 14:53:06;;;;;;;5.80;1.23;;;16.00;84.90;;;;;;4878325;29;20140;-79
2022/05/28 14:55:37;;;;;;;5.70;0.77;;;15.80;86.10;;;;;;4864064;29;20100;-78
2022/05/28 14:58:21;;;;;;;7.80;1.23;;;15.80;86.60;;;;;;4862044;29;20056;-78
2022/05/28 15:00:49;;;;;;;3.85;0.77;;;16.20;87.70;;;;;;4843702;29;20040;-78
2022/05/28 15:03:33;;;;;;;2.75;0.70;;;16.60;91.00;;;;;;4844858;29;20492;-76
2022/05/28 15:06:17;;;;;;;3.28;0.90;;;16.80;80.30;;;;;;4842786;29;20516;-78
2022/05/28 15:08:57;;;;;;;5.07;1.20;;;16.70;85.50;;;;;;4845721;29;20120;-78
2022/05/28 15:11:49;;;;;;;2.70;0.80;;;16.50;85.50;;;;;;4839756;29;20045;-78
2022/05/28 15:14:31;;;;;;;3.92;0.80;;;16.40;89.20;;;;;;4839285;29;20094;-79
2022/05/28 15:17:06;;;;;;;3.30;0.90;;;16.30;83.50;;;;;;4856387;29;20053;-78
2022/05/28 15:19:40;;;;;;;1.05;0.60;;;16.30;87.40;;;;;;4844305;29;20048;-78
2022/05/28 15:22:16;;;;;;;3.97;1.15;;;16.30;88.40;;;;;;4845737;29;20041;-78
2022/05/28 15:24:49;;;;;;;3.50;1.00;;;16.50;87.60;;;;;;4845382;29;20067;-80
2022/05/28 15:27:15;;;;;;;7.32;1.10;;;16.60;90.30;;;;;;4857047;29;20040;-79
2022/05/28 15:29:52;;;;;;;3.92;0.95;;;16.70;87.00;;;;;;4844876;29;20068;-79
2022/05/28 15:32:24;;;;;;;4.70;0.90;;;16.70;86.00;;;;;;4857369;29;20421;-79
2022/05/28 15:34:52;;;;;;;4.50;0.90;;;16.40;81.50;;;;;;4860052;29;20037;-79
2022/05/28 15:40:03;;;;;;;2.20;0.70;;;16.00;88.50;;;;;;4874945;29;20084;-79
2022/05/28 15:42:41;;;;;;;5.05;1.00;;;16.00;89.50;;;;;;4844416;29;20044;-79
2022/05/28 15:45:19;;;;;;;3.75;1.08;;;15.90;91.10;;;;;;4840540;29;20041;-79
2022/05/28 15:47:46;;;;;;;3.83;0.85;;;15.80;88.80;;;;;;4843233;29;20077;-79
2022/05/28 15:50:13;;;;;;;2.83;0.90;;;15.60;86.70;;;;;;4834898;29;20037;-78
2022/05/28 15:52:41;;;;;;;4.28;1.10;;;15.40;89.30;;;;;;4840405;29;20620;-79
2022/05/28 15:55:08;;;;;;;2.53;0.75;;;15.20;92.80;;;;;;4860045;29;20591;-79
2022/05/28 15:57:46;;;;;;;5.30;1.20;;;15.10;91.00;;;;;;4837890;29;20064;-79
2022/05/28 16:00:13;;;;;;;7.03;1.10;;;15.00;91.70;;;;;;4844678;29;20037;-78
2022/05/28 16:02:40;;;;;;;7.90;1.00;;;14.90;92.70;;;;;;4843220;29;20481;-78